Time;durP1;ratioP1;P1;durP2;ratioP2;P2;SDS_P1;SDS_P2;PMS_P1;PMS_P2;Temp;Humidity;BMP_temperature;BMP_pressure;BME280_temperature;BME280_humidity;BME280_pressure;Samples;Min_cycle;Max_cycle;Signal;HPM_P1;HPM_P2
2024/01/30 00:00:38;;;;;;;25.35;12.27;;;1.70;99.90;;;;;;4992323;28;20045;-46
2024/01/30 00:03:05;;;;;;;19.90;11.43;;;1.70;99.90;;;;;;5012425;28;20065;-49
2024/01/30 00:05:32;;;;;;;20.90;10.60;;;1.70;99.90;;;;;;5017728;28;20070;-47
2024/01/30 00:07:59;;;;;;;21.83;11.10;;;1.70;99.90;;;;;;5007640;28;20054;-46
2024/01/30 00:10:26;;;;;;;22.13;12.05;;;1.70;99.90;;;;;;5010642;28;20109;-49
2024/01/30 00:12:53;;;;;;;22.52;11.98;;;1.60;99.90;;;;;;5009415;28;20042;-47
2024/01/30 00:15:20;;;;;;;21.15;12.05;;;1.70;99.90;;;;;;5012805;28;20076;-52
2024/01/30 00:17:47;;;;;;;20.10;11.73;;;1.60;99.90;;;;;;5007959;28;20502;-46
2024/01/30 00:20:14;;;;;;;22.35;11.98;;;1.60;99.90;;;;;;5012012;28;20381;-45
2024/01/30 00:22:41;;;;;;;20.17;10.55;;;1.60;99.90;;;;;;5018406;28;20045;-47
2024/01/30 00:25:08;;;;;;;18.17;11.82;;;1.60;99.90;;;;;;5016161;28;20486;-47
2024/01/30 00:27:36;;;;;;;16.60;11.35;;;1.60;99.90;;;;;;5010594;28;20140;-45
2024/01/30 00:30:03;;;;;;;18.42;10.75;;;1.60;99.90;;;;;;5007728;28;20403;-46
2024/01/30 00:32:30;;;;;;;15.77;9.98;;;1.50;99.90;;;;;;5012473;28;20049;-47
2024/01/30 00:34:57;;;;;;;21.00;11.75;;;1.60;99.90;;;;;;5004608;28;20081;-49
2024/01/30 00:37:24;;;;;;;16.80;10.82;;;1.60;99.90;;;;;;5007808;28;20042;-51
2024/01/30 00:39:51;;;;;;;20.23;10.57;;;1.60;99.90;;;;;;5006367;28;20504;-55
2024/01/30 00:42:19;;;;;;;18.08;10.98;;;1.60;99.90;;;;;;5006952;28;20066;-48
2024/01/30 00:44:46;;;;;;;16.10;9.90;;;1.70;99.90;;;;;;5008240;28;20137;-50
2024/01/30 00:47:13;;;;;;;14.77;9.57;;;1.70;99.90;;;;;;5009992;28;20042;-50
2024/01/30 00:49:40;;;;;;;21.33;10.55;;;1.70;99.90;;;;;;5009271;28;20112;-48
2024/01/30 00:52:07;;;;;;;17.48;10.00;;;1.70;99.90;;;;;;5010902;28;20140;-46
2024/01/30 00:54:34;;;;;;;18.90;10.18;;;1.70;99.90;;;;;;5010134;28;20061;-52
2024/01/30 00:57:01;;;;;;;15.95;10.00;;;1.70;99.90;;;;;;5007479;28;20077;-49
2024/01/30 00:59:28;;;;;;;16.95;10.63;;;1.70;99.90;;;;;;5008012;28;20499;-49
2024/01/30 01:01:55;;;;;;;17.42;9.65;;;1.80;99.90;;;;;;5008299;28;20518;-48
2024/01/30 01:04:22;;;;;;;15.00;9.68;;;1.80;99.90;;;;;;5008766;28;20045;-50
2024/01/30 01:06:49;;;;;;;18.52;9.27;;;1.80;99.90;;;;;;5007607;28;20421;-53
2024/01/30 01:09:17;;;;;;;15.65;9.02;;;1.90;99.90;;;;;;5005928;28;20097;-50
2024/01/30 01:11:44;;;;;;;17.48;9.52;;;1.90;99.90;;;;;;5010585;28;20053;-49
2024/01/30 01:14:11;;;;;;;14.68;9.07;;;1.90;99.90;;;;;;5011124;28;20072;-46
2024/01/30 01:16:37;;;;;;;13.93;8.90;;;1.90;99.90;;;;;;5011927;28;20100;-48
2024/01/30 01:19:04;;;;;;;13.57;9.18;;;1.90;99.90;;;;;;5011587;28;20486;-52
2024/01/30 01:21:32;;;;;;;12.70;8.90;;;1.90;99.90;;;;;;5010474;28;20096;-47
2024/01/30 01:23:59;;;;;;;14.57;8.95;;;1.90;99.90;;;;;;5012773;28;20085;-48
2024/01/30 01:26:26;;;;;;;15.00;8.35;;;1.90;99.90;;;;;;5010622;28;20133;-50
2024/01/30 01:28:53;;;;;;;13.90;8.63;;;1.80;99.90;;;;;;5013204;28;20128;-51
2024/01/30 01:31:22;;;;;;;12.55;8.27;;;1.80;99.90;;;;;;4992926;28;20038;-47
2024/01/30 01:33:49;;;;;;;18.77;9.73;;;1.80;99.90;;;;;;5006457;28;20064;-48
2024/01/30 01:36:16;;;;;;;15.98;8.50;;;1.90;99.90;;;;;;5009695;28;20038;-49
2024/01/30 01:38:43;;;;;;;13.88;8.52;;;1.80;99.90;;;;;;5011243;28;20151;-53
2024/01/30 01:41:10;;;;;;;13.23;8.35;;;1.80;99.90;;;;;;5008393;28;20463;-49
2024/01/30 01:43:39;;;;;;;16.50;8.50;;;1.80;99.90;;;;;;5010109;28;20565;-49
2024/01/30 01:46:07;;;;;;;13.30;8.63;;;1.70;99.90;;;;;;5008166;28;20180;-50
2024/01/30 01:48:34;;;;;;;16.23;10.07;;;1.70;99.90;;;;;;5009768;28;20066;-48
2024/01/30 01:51:02;;;;;;;13.93;8.50;;;1.70;99.90;;;;;;5008538;28;20046;-47
2024/01/30 01:53:29;;;;;;;16.77;8.98;;;1.70;99.90;;;;;;5009474;28;20136;-49
2024/01/30 01:55:57;;;;;;;14.35;8.43;;;1.80;99.90;;;;;;5011342;28;20050;-48
2024/01/30 01:58:28;;;;;;;14.82;7.45;;;1.80;99.90;;;;;;5011820;28;20118;-48
2024/01/30 02:00:57;;;;;;;12.38;7.65;;;1.80;99.90;;;;;;5008738;28;20057;-46
2024/01/30 02:03:24;;;;;;;16.77;8.75;;;1.80;99.90;;;;;;5009746;28;20056;-52
2024/01/30 02:05:51;;;;;;;14.05;8.18;;;1.90;99.90;;;;;;5008166;28;20467;-43
2024/01/30 02:08:18;;;;;;;13.50;7.88;;;1.90;99.90;;;;;;5009268;28;20468;-55
2024/01/30 02:10:45;;;;;;;12.88;8.52;;;2.00;99.90;;;;;;5008528;28;20042;-48
2024/01/30 02:13:13;;;;;;;12.68;8.50;;;2.10;99.90;;;;;;5009281;28;20066;-53
2024/01/30 02:15:40;;;;;;;12.40;8.25;;;2.20;99.90;;;;;;5007652;28;20444;-49
2024/01/30 02:18:07;;;;;;;13.80;8.65;;;2.30;99.90;;;;;;5008035;28;20507;-45
2024/01/30 02:20:36;;;;;;;10.98;7.97;;;2.30;99.90;;;;;;5000310;28;21648;-44
2024/01/30 02:23:04;;;;;;;15.07;7.75;;;2.30;99.90;;;;;;5007415;28;20068;-50
2024/01/30 02:25:33;;;;;;;12.45;8.60;;;2.30;99.90;;;;;;5007990;28;20153;-51
2024/01/30 02:28:00;;;;;;;15.18;8.82;;;2.30;99.90;;;;;;5005804;28;20233;-45
2024/01/30 02:30:27;;;;;;;12.23;8.27;;;2.30;99.90;;;;;;4991692;28;20085;-46
2024/01/30 02:32:54;;;;;;;12.05;8.25;;;2.20;99.90;;;;;;5011282;28;20061;-47
2024/01/30 02:35:21;;;;;;;12.85;7.97;;;2.20;99.90;;;;;;5005451;28;20062;-50
2024/01/30 02:37:48;;;;;;;12.75;8.73;;;2.10;99.90;;;;;;5005880;28;20046;-49
2024/01/30 02:40:15;;;;;;;14.18;8.32;;;2.10;99.90;;;;;;5005083;28;20451;-46
2024/01/30 02:42:43;;;;;;;13.95;8.77;;;2.00;99.90;;;;;;5008805;28;20054;-47
2024/01/30 02:45:11;;;;;;;12.85;7.90;;;2.00;99.90;;;;;;5006092;28;20126;-46
2024/01/30 02:47:40;;;;;;;14.85;8.90;;;2.10;99.90;;;;;;5006520;28;20052;-48
2024/01/30 02:50:07;;;;;;;11.82;7.95;;;2.10;99.90;;;;;;5007083;28;20687;-43
2024/01/30 02:52:34;;;;;;;14.05;8.07;;;2.10;99.90;;;;;;5006995;28;20153;-51
2024/01/30 02:55:02;;;;;;;12.75;7.97;;;2.10;99.90;;;;;;5005331;28;20127;-46
2024/01/30 02:57:29;;;;;;;13.07;8.30;;;2.10;99.90;;;;;;5008673;28;20109;-49
2024/01/30 02:59:56;;;;;;;14.57;8.15;;;2.00;99.90;;;;;;5009698;28;20530;-49
2024/01/30 03:02:23;;;;;;;11.20;7.70;;;1.90;99.90;;;;;;5009429;28;20450;-49
2024/01/30 03:04:50;;;;;;;14.70;8.52;;;1.80;99.90;;;;;;5011237;28;20078;-52
2024/01/30 03:07:17;;;;;;;13.05;8.13;;;1.80;99.90;;;;;;4990252;28;20038;-48
2024/01/30 03:09:44;;;;;;;13.95;8.57;;;1.70;99.90;;;;;;5007567;28;20065;-49
2024/01/30 03:12:12;;;;;;;13.73;8.77;;;1.70;99.90;;;;;;5005732;28;20049;-45
2024/01/30 03:14:39;;;;;;;12.52;7.93;;;1.60;99.90;;;;;;5006663;28;20045;-46
2024/01/30 03:17:06;;;;;;;12.65;9.02;;;1.60;99.90;;;;;;5006490;28;20046;-47
2024/01/30 03:19:33;;;;;;;17.85;8.77;;;1.50;99.90;;;;;;5005890;28;20050;-49
2024/01/30 03:22:00;;;;;;;13.75;8.15;;;1.50;99.90;;;;;;5006725;28;20056;-49
2024/01/30 03:24:27;;;;;;;14.20;9.13;;;1.50;99.90;;;;;;5005501;28;20069;-52
2024/01/30 03:26:54;;;;;;;12.30;8.75;;;1.40;99.90;;;;;;5006620;28;20046;-52
2024/01/30 03:29:21;;;;;;;14.68;8.48;;;1.40;99.90;;;;;;5007620;28;20089;-55
2024/01/30 03:31:49;;;;;;;13.75;8.73;;;1.40;99.90;;;;;;5000466;28;20134;-51
2024/01/30 03:34:15;;;;;;;17.45;9.05;;;1.40;99.90;;;;;;5005996;28;20128;-49
2024/01/30 03:36:43;;;;;;;16.80;8.90;;;1.40;99.90;;;;;;5005213;28;20049;-52
2024/01/30 03:39:10;;;;;;;13.15;8.73;;;1.40;99.90;;;;;;5006991;28;20073;-51
2024/01/30 03:41:37;;;;;;;14.40;8.90;;;1.40;99.90;;;;;;5003417;28;20152;-49
2024/01/30 03:44:03;;;;;;;12.38;8.20;;;1.40;99.90;;;;;;5007607;28;20058;-50
2024/01/30 03:46:30;;;;;;;11.45;7.60;;;1.40;99.90;;;;;;5006183;28;20539;-43
2024/01/30 03:48:57;;;;;;;17.27;8.70;;;1.30;99.90;;;;;;5004015;28;20145;-48
2024/01/30 03:51:24;;;;;;;13.93;9.25;;;1.40;99.90;;;;;;5008500;28;20042;-50
2024/01/30 03:53:51;;;;;;;14.07;8.82;;;1.40;99.90;;;;;;5000480;28;20069;-47
2024/01/30 03:56:18;;;;;;;16.23;9.82;;;1.40;99.90;;;;;;5003020;28;20474;-49
2024/01/30 03:58:45;;;;;;;19.05;10.07;;;1.50;99.90;;;;;;5005986;28;20141;-47
2024/01/30 04:01:15;;;;;;;14.60;8.85;;;1.50;99.90;;;;;;5006404;28;20412;-51
2024/01/30 04:03:43;;;;;;;16.70;9.20;;;1.50;99.90;;;;;;5005994;28;20105;-45
2024/01/30 04:06:11;;;;;;;18.95;9.73;;;1.50;99.90;;;;;;5006336;28;20133;-54
2024/01/30 04:08:38;;;;;;;15.27;9.27;;;1.50;99.90;;;;;;5005544;28;20049;-50
2024/01/30 04:11:06;;;;;;;14.35;9.68;;;1.50;99.90;;;;;;5007155;28;20475;-51
2024/01/30 04:13:33;;;;;;;14.82;9.43;;;1.50;99.90;;;;;;5008070;28;20073;-48
2024/01/30 04:16:03;;;;;;;16.67;9.40;;;1.70;99.90;;;;;;5008152;28;20050;-49
2024/01/30 04:18:30;;;;;;;16.92;9.90;;;1.70;99.90;;;;;;5003707;28;20042;-45
2024/01/30 04:20:57;;;;;;;16.58;10.27;;;1.70;99.90;;;;;;5006783;28;20414;-47
2024/01/30 04:23:24;;;;;;;14.93;9.27;;;1.80;99.90;;;;;;5006501;28;20042;-48
2024/01/30 04:25:51;;;;;;;16.08;9.88;;;1.80;99.90;;;;;;5006780;28;20054;-46
2024/01/30 04:28:18;;;;;;;14.45;9.23;;;1.80;99.90;;;;;;5004967;28;20046;-51
2024/01/30 04:30:45;;;;;;;13.60;9.32;;;1.80;99.90;;;;;;5006377;28;20116;-51
2024/01/30 04:33:12;;;;;;;15.25;9.93;;;1.90;99.90;;;;;;5005241;28;20431;-49
2024/01/30 04:35:40;;;;;;;12.65;9.55;;;1.90;99.90;;;;;;5007112;28;20318;-52
2024/01/30 04:38:07;;;;;;;16.67;9.63;;;2.00;99.90;;;;;;5006276;28;20050;-51
2024/01/30 04:40:34;;;;;;;16.15;9.70;;;2.00;99.90;;;;;;5007398;28;20577;-51
2024/01/30 04:43:00;;;;;;;17.13;10.20;;;2.00;99.90;;;;;;5008892;28;20038;-50
2024/01/30 04:45:27;;;;;;;16.80;10.50;;;2.00;99.90;;;;;;5006049;28;20077;-49
2024/01/30 04:47:55;;;;;;;22.00;12.32;;;2.10;99.90;;;;;;5004831;28;20164;-45
2024/01/30 04:50:23;;;;;;;19.40;10.70;;;2.10;99.90;;;;;;5003379;28;20049;-49
2024/01/30 04:52:50;;;;;;;15.15;9.75;;;2.10;99.90;;;;;;5006571;28;20049;-50
2024/01/30 04:55:18;;;;;;;16.58;10.05;;;2.10;99.90;;;;;;4990449;28;20061;-45
2024/01/30 04:57:49;;;;;;;18.87;10.47;;;2.20;99.90;;;;;;5006288;28;20068;-46
2024/01/30 05:00:16;;;;;;;16.60;10.75;;;2.20;99.90;;;;;;5005924;28;20526;-49
2024/01/30 05:02:43;;;;;;;15.48;9.57;;;2.20;99.90;;;;;;5007551;28;20057;-50
2024/01/30 05:05:10;;;;;;;17.70;10.90;;;2.20;99.90;;;;;;5005222;28;20129;-51
2024/01/30 05:07:38;;;;;;;16.48;10.63;;;2.20;99.90;;;;;;5004201;28;20062;-54
2024/01/30 05:10:05;;;;;;;16.08;10.93;;;2.20;99.90;;;;;;5005691;28;20132;-52
2024/01/30 05:12:33;;;;;;;20.52;9.77;;;2.20;99.90;;;;;;5004570;28;20053;-45
2024/01/30 05:15:00;;;;;;;19.13;10.50;;;2.20;99.90;;;;;;5005323;28;20038;-46
2024/01/30 05:17:27;;;;;;;16.42;10.43;;;2.20;99.90;;;;;;5004115;28;20037;-54
2024/01/30 05:19:54;;;;;;;15.25;10.10;;;2.20;99.90;;;;;;4999382;28;20049;-52
2024/01/30 05:22:21;;;;;;;16.17;9.98;;;2.20;99.90;;;;;;5002824;28;20117;-48
2024/01/30 05:24:48;;;;;;;18.73;11.57;;;2.20;99.90;;;;;;5003879;28;20062;-45
2024/01/30 05:27:15;;;;;;;16.17;10.77;;;2.20;99.90;;;;;;5008834;28;20204;-51
2024/01/30 05:29:42;;;;;;;17.75;11.10;;;2.20;99.90;;;;;;5002341;28;20470;-48
2024/01/30 05:32:10;;;;;;;17.05;11.07;;;2.20;99.90;;;;;;5002101;28;20133;-45
2024/01/30 05:34:37;;;;;;;13.63;9.82;;;2.20;99.90;;;;;;5006335;28;20050;-49
2024/01/30 05:37:04;;;;;;;20.00;10.20;;;2.20;99.90;;;;;;5005620;28;20048;-52
2024/01/30 05:39:32;;;;;;;16.75;10.85;;;2.20;99.90;;;;;;5003673;28;20049;-44
2024/01/30 05:42:00;;;;;;;15.93;11.02;;;2.20;99.90;;;;;;5006512;28;20042;-51
2024/01/30 05:44:26;;;;;;;20.98;12.23;;;2.20;99.90;;;;;;5006693;28;20065;-49
2024/01/30 05:46:54;;;;;;;17.48;10.63;;;2.20;99.90;;;;;;5006748;28;20522;-48
2024/01/30 05:49:20;;;;;;;16.38;10.48;;;2.20;99.90;;;;;;5001068;28;20045;-51
2024/01/30 05:51:48;;;;;;;18.40;11.75;;;2.20;99.90;;;;;;5005858;28;20134;-45
2024/01/30 05:54:15;;;;;;;20.90;11.65;;;2.20;99.90;;;;;;5006095;28;20046;-46
2024/01/30 05:56:44;;;;;;;20.25;11.90;;;2.20;99.90;;;;;;5010142;28;20224;-50
2024/01/30 05:59:11;;;;;;;17.83;11.60;;;2.30;99.90;;;;;;5011985;28;20069;-54
2024/01/30 06:01:38;;;;;;;16.80;12.10;;;2.30;99.90;;;;;;5015741;28;20183;-46
2024/01/30 06:04:05;;;;;;;18.17;12.10;;;2.30;99.90;;;;;;5014923;28;20383;-52
2024/01/30 06:06:32;;;;;;;19.60;11.52;;;2.30;99.90;;;;;;5012872;28;20050;-46
2024/01/30 06:08:59;;;;;;;19.90;12.32;;;2.30;99.90;;;;;;5012555;28;20049;-55
2024/01/30 06:11:26;;;;;;;18.60;12.05;;;2.30;99.90;;;;;;5004987;28;20042;-47
2024/01/30 06:13:53;;;;;;;23.15;13.48;;;2.30;99.90;;;;;;5007134;28;20065;-50
2024/01/30 06:16:21;;;;;;;21.52;13.32;;;2.30;99.90;;;;;;5007540;28;20073;-46
2024/01/30 06:18:48;;;;;;;19.30;12.93;;;2.30;99.90;;;;;;5009081;28;20034;-45
2024/01/30 06:21:15;;;;;;;21.38;13.48;;;2.30;99.90;;;;;;5009122;28;20463;-49
2024/01/30 06:23:42;;;;;;;20.13;13.18;;;2.30;99.90;;;;;;5008408;28;20535;-48
2024/01/30 06:26:10;;;;;;;21.63;13.93;;;2.30;99.90;;;;;;5009213;28;20501;-51
2024/01/30 06:28:37;;;;;;;16.88;12.18;;;2.30;99.90;;;;;;5008960;28;20120;-48
2024/01/30 06:31:04;;;;;;;23.30;14.10;;;2.30;99.90;;;;;;5006958;28;20050;-52
2024/01/30 06:33:31;;;;;;;19.73;12.73;;;2.40;99.90;;;;;;5009442;28;20057;-49
2024/01/30 06:35:58;;;;;;;21.02;12.90;;;2.30;99.90;;;;;;5011010;28;20049;-50
2024/01/30 06:38:25;;;;;;;19.58;12.18;;;2.30;99.90;;;;;;5004035;28;20091;-47
2024/01/30 06:40:52;;;;;;;19.38;12.57;;;2.30;99.90;;;;;;5008873;28;20057;-49
2024/01/30 06:43:19;;;;;;;22.80;13.60;;;2.30;99.90;;;;;;5008326;28;20042;-49
2024/01/30 06:45:46;;;;;;;23.92;12.68;;;2.30;99.90;;;;;;5006111;28;20053;-55
2024/01/30 06:48:13;;;;;;;19.38;12.90;;;2.30;99.90;;;;;;5005785;28;20070;-49
2024/01/30 06:50:40;;;;;;;23.55;14.07;;;2.30;99.90;;;;;;5007050;28;20412;-50
2024/01/30 06:53:07;;;;;;;20.02;12.30;;;2.20;99.90;;;;;;5003313;28;20478;-49
2024/01/30 06:55:34;;;;;;;19.83;12.98;;;2.20;99.90;;;;;;5006732;28;20046;-49
2024/01/30 06:58:01;;;;;;;26.10;13.35;;;2.20;99.90;;;;;;5005043;28;20037;-51
2024/01/30 07:00:28;;;;;;;20.42;12.70;;;2.20;99.90;;;;;;5004214;28;20133;-48
2024/01/30 07:02:55;;;;;;;22.42;12.95;;;2.20;99.90;;;;;;5004316;28;20060;-54
2024/01/30 07:05:22;;;;;;;21.05;13.05;;;2.20;99.90;;;;;;5006214;28;20046;-50
2024/01/30 07:07:49;;;;;;;27.23;16.65;;;2.20;99.90;;;;;;5010020;28;20173;-53
2024/01/30 07:10:16;;;;;;;23.90;14.65;;;2.20;99.90;;;;;;5009489;28;20463;-50
2024/01/30 07:12:43;;;;;;;25.55;13.68;;;2.20;99.90;;;;;;5009747;28;20474;-51
2024/01/30 07:15:10;;;;;;;28.38;15.00;;;2.30;99.90;;;;;;5009065;28;20072;-51
2024/01/30 07:17:37;;;;;;;20.50;13.82;;;2.30;99.90;;;;;;5007287;28;21229;-51
2024/01/30 07:20:05;;;;;;;31.08;14.40;;;2.30;99.90;;;;;;5006895;28;20069;-46
2024/01/30 07:22:33;;;;;;;25.65;14.98;;;2.30;99.90;;;;;;5008430;28;20066;-54
2024/01/30 07:25:00;;;;;;;26.25;14.90;;;2.40;99.90;;;;;;5007842;28;20121;-52
2024/01/30 07:27:27;;;;;;;25.45;15.13;;;2.40;99.90;;;;;;5007729;28;20168;-49
2024/01/30 07:29:54;;;;;;;26.30;14.88;;;2.50;99.90;;;;;;5006435;28;20046;-51
2024/01/30 07:32:21;;;;;;;26.15;15.70;;;2.50;99.90;;;;;;5009198;28;20057;-56
2024/01/30 07:34:48;;;;;;;28.00;15.52;;;2.50;99.90;;;;;;5008837;28;20049;-49
2024/01/30 07:37:33;;;;;;;26.90;15.50;;;2.60;99.90;;;;;;5011823;28;20046;-50
2024/01/30 07:40:01;;;;;;;28.17;15.13;;;2.70;99.90;;;;;;5013327;28;20057;-52
2024/01/30 07:42:28;;;;;;;22.90;15.45;;;2.80;99.90;;;;;;5009013;28;20542;-50
2024/01/30 07:44:55;;;;;;;23.83;15.23;;;2.80;99.90;;;;;;4989528;28;20069;-49
2024/01/30 07:47:22;;;;;;;25.17;15.98;;;2.90;99.90;;;;;;5006831;28;20573;-49
2024/01/30 07:49:49;;;;;;;26.48;15.23;;;3.00;99.90;;;;;;5008300;28;20141;-53
2024/01/30 07:52:17;;;;;;;23.30;15.25;;;3.00;99.90;;;;;;5007735;28;20120;-49
2024/01/30 07:54:44;;;;;;;25.70;16.00;;;3.10;99.90;;;;;;5008926;28;20048;-52
2024/01/30 07:57:12;;;;;;;26.65;16.75;;;3.20;99.90;;;;;;5009232;28;20046;-50
2024/01/30 07:59:41;;;;;;;29.73;16.23;;;3.30;99.90;;;;;;5004579;28;20030;-47
2024/01/30 08:02:08;;;;;;;22.73;15.13;;;3.40;99.90;;;;;;5005813;28;20050;-54
2024/01/30 08:04:35;;;;;;;25.77;15.95;;;3.50;99.90;;;;;;4991316;28;20044;-49
2024/01/30 08:07:03;;;;;;;29.30;18.35;;;3.50;99.90;;;;;;5009144;28;20061;-50
2024/01/30 08:09:30;;;;;;;30.45;18.05;;;3.60;99.90;;;;;;5008301;28;20109;-53
2024/01/30 08:11:57;;;;;;;24.33;15.50;;;3.70;99.90;;;;;;5006824;28;20554;-51
2024/01/30 08:14:25;;;;;;;28.80;15.48;;;3.80;99.90;;;;;;5008225;28;20048;-48
2024/01/30 08:16:52;;;;;;;31.98;16.40;;;3.90;99.90;;;;;;5009538;28;20052;-45
2024/01/30 08:19:19;;;;;;;26.70;17.85;;;4.00;99.90;;;;;;5009251;28;20041;-47
2024/01/30 08:21:46;;;;;;;33.30;18.25;;;4.10;99.90;;;;;;5004287;28;20049;-44
2024/01/30 08:24:13;;;;;;;28.73;17.88;;;4.20;99.90;;;;;;5004289;28;20069;-50
2024/01/30 08:26:40;;;;;;;26.58;17.05;;;4.30;99.90;;;;;;5003362;28;20060;-48
2024/01/30 08:29:07;;;;;;;25.80;16.38;;;4.30;99.90;;;;;;5006946;28;20101;-46
2024/01/30 08:31:35;;;;;;;24.45;17.25;;;4.40;99.90;;;;;;4999199;28;20057;-47
2024/01/30 08:34:02;;;;;;;27.92;17.48;;;4.50;99.90;;;;;;5007927;28;20077;-49
2024/01/30 08:36:29;;;;;;;28.10;16.65;;;4.70;99.90;;;;;;5007623;28;20112;-55
2024/01/30 08:38:56;;;;;;;25.30;16.23;;;4.70;99.90;;;;;;5002857;28;20053;-47
2024/01/30 08:41:28;;;;;;;28.50;17.67;;;4.80;99.90;;;;;;5005523;28;20069;-50
2024/01/30 08:43:55;;;;;;;30.35;19.13;;;4.90;99.90;;;;;;4988406;28;20493;-46
2024/01/30 08:46:22;;;;;;;26.20;16.92;;;4.90;99.90;;;;;;5007427;28;20049;-44
2024/01/30 08:48:50;;;;;;;27.33;17.50;;;5.10;99.90;;;;;;5002715;28;20053;-49
2024/01/30 08:51:17;;;;;;;25.83;16.80;;;5.10;99.90;;;;;;5009518;28;20061;-49
2024/01/30 08:53:44;;;;;;;35.30;18.50;;;5.20;99.90;;;;;;5009138;28;20058;-53
2024/01/30 08:56:11;;;;;;;27.13;16.58;;;5.20;99.90;;;;;;5008314;28;20045;-58
2024/01/30 08:58:38;;;;;;;27.30;17.13;;;5.30;99.90;;;;;;5007049;28;20049;-53
2024/01/30 09:01:05;;;;;;;21.80;15.82;;;5.40;99.90;;;;;;5006150;28;20126;-51
2024/01/30 09:03:33;;;;;;;28.40;17.73;;;5.60;99.90;;;;;;4989769;28;20107;-45
2024/01/30 09:06:00;;;;;;;36.28;19.73;;;5.70;99.90;;;;;;5007345;28;20128;-50
2024/01/30 09:08:27;;;;;;;33.63;17.85;;;5.70;99.90;;;;;;5005625;28;20042;-44
2024/01/30 09:10:54;;;;;;;24.90;16.52;;;5.80;99.90;;;;;;5006498;28;20052;-51
2024/01/30 09:13:22;;;;;;;25.30;16.67;;;5.90;99.90;;;;;;5004650;28;20065;-50
2024/01/30 09:15:49;;;;;;;24.88;16.30;;;6.00;99.90;;;;;;5004356;28;20066;-50
2024/01/30 09:18:16;;;;;;;30.13;17.48;;;6.20;99.90;;;;;;5007102;28;20042;-51
2024/01/30 09:20:43;;;;;;;26.45;16.80;;;6.30;99.90;;;;;;5006599;28;20046;-51
2024/01/30 09:23:10;;;;;;;27.65;16.58;;;6.40;99.90;;;;;;5007923;28;20124;-52
2024/01/30 09:25:37;;;;;;;24.08;16.23;;;6.60;99.90;;;;;;5006174;28;20132;-44
2024/01/30 09:28:05;;;;;;;21.70;15.75;;;6.70;99.90;;;;;;4989923;28;20069;-48
2024/01/30 09:30:32;;;;;;;22.33;16.15;;;6.90;99.90;;;;;;5008148;28;20482;-45
2024/01/30 09:32:59;;;;;;;27.60;16.75;;;7.10;99.90;;;;;;5013058;28;20172;-51
2024/01/30 09:35:26;;;;;;;25.08;15.98;;;7.20;99.90;;;;;;5012695;28;20038;-47
2024/01/30 09:37:53;;;;;;;24.40;15.68;;;7.40;99.90;;;;;;5012859;28;20506;-48
2024/01/30 09:40:21;;;;;;;23.42;15.88;;;7.60;99.90;;;;;;5011742;28;20045;-50
2024/01/30 09:42:50;;;;;;;24.10;16.15;;;7.70;99.90;;;;;;4973719;28;20054;-52
2024/01/30 09:45:18;;;;;;;25.13;16.52;;;7.70;99.90;;;;;;5011179;28;20141;-48
2024/01/30 09:47:46;;;;;;;23.33;16.75;;;7.90;99.90;;;;;;4992751;28;20046;-47
2024/01/30 09:50:14;;;;;;;27.27;16.15;;;7.60;99.90;;;;;;5011921;28;20042;-49
2024/01/30 09:52:44;;;;;;;23.63;16.33;;;7.80;99.90;;;;;;5009737;28;20061;-54
2024/01/30 09:55:11;;;;;;;22.33;16.27;;;7.90;99.90;;;;;;5008872;28;20073;-48
2024/01/30 09:57:39;;;;;;;29.35;17.75;;;8.00;99.90;;;;;;5006304;28;20509;-51
2024/01/30 10:00:09;;;;;;;27.65;16.92;;;7.90;99.90;;;;;;4990970;28;20079;-49
2024/01/30 10:02:40;;;;;;;25.35;18.10;;;8.00;99.90;;;;;;5008877;28;20045;-46
2024/01/30 10:05:08;;;;;;;20.75;16.27;;;7.80;99.90;;;;;;5009179;28;20045;-52
2024/01/30 10:07:35;;;;;;;27.00;16.95;;;8.00;99.90;;;;;;4991560;28;20041;-53
2024/01/30 10:10:04;;;;;;;26.65;16.70;;;8.00;99.90;;;;;;5008994;28;20558;-52
2024/01/30 10:12:32;;;;;;;22.75;17.35;;;8.20;99.90;;;;;;5008204;28;20049;-47
2024/01/30 10:14:59;;;;;;;21.95;16.48;;;8.30;99.90;;;;;;5003505;28;20106;-50
2024/01/30 10:17:27;;;;;;;21.48;16.42;;;8.50;99.90;;;;;;5007746;28;20203;-52
2024/01/30 10:20:00;;;;;;;28.13;17.42;;;8.70;99.90;;;;;;5007142;28;20046;-47
2024/01/30 10:22:28;;;;;;;23.27;16.52;;;8.60;99.90;;;;;;5008389;28;20053;-51
2024/01/30 10:24:56;;;;;;;26.63;16.83;;;8.70;99.90;;;;;;5008264;28;20038;-49
2024/01/30 10:27:27;;;;;;;24.77;16.20;;;8.60;99.90;;;;;;5008606;28;20499;-47
2024/01/30 10:29:54;;;;;;;25.63;16.60;;;8.50;99.90;;;;;;5005592;28;20061;-49
2024/01/30 10:32:21;;;;;;;21.38;16.45;;;8.50;99.90;;;;;;5006032;28;20522;-49
2024/01/30 10:34:49;;;;;;;22.92;17.08;;;8.50;99.90;;;;;;5006157;28;20510;-49
2024/01/30 10:37:18;;;;;;;21.45;16.05;;;8.70;99.90;;;;;;5008595;28;20466;-52
2024/01/30 10:39:45;;;;;;;23.75;16.45;;;8.90;99.90;;;;;;5009298;28;20525;-54
2024/01/30 10:42:15;;;;;;;22.10;15.88;;;9.00;99.90;;;;;;5008605;28;20046;-49
2024/01/30 10:45:04;;;;;;;26.88;17.40;;;9.00;99.90;;;;;;5010980;28;20049;-49
2024/01/30 10:47:33;;;;;;;26.50;17.23;;;9.20;99.90;;;;;;4999881;28;20083;-52
2024/01/30 10:50:01;;;;;;;28.90;17.92;;;9.40;99.90;;;;;;5002222;28;20038;-47
2024/01/30 10:52:29;;;;;;;28.60;18.92;;;9.50;99.90;;;;;;5008696;28;20072;-49
2024/01/30 10:54:57;;;;;;;29.00;18.35;;;9.50;99.90;;;;;;5002034;28;20049;-48
2024/01/30 10:57:26;;;;;;;24.73;16.85;;;9.70;99.90;;;;;;5005739;28;20038;-50
2024/01/30 11:00:00;;;;;;;25.08;16.77;;;9.70;99.90;;;;;;5007138;28;20076;-53
2024/01/30 11:02:27;;;;;;;25.27;17.52;;;9.80;99.90;;;;;;5007347;28;20050;-49
2024/01/30 11:04:57;;;;;;;26.17;17.17;;;10.00;99.90;;;;;;5007705;28;20042;-46
2024/01/30 11:07:29;;;;;;;28.65;17.67;;;10.10;99.90;;;;;;5008033;28;20061;-49
2024/01/30 11:10:04;;;;;;;22.52;16.35;;;10.20;99.90;;;;;;5008021;28;20388;-48
2024/01/30 11:12:33;;;;;;;19.67;16.60;;;10.30;99.90;;;;;;5006235;28;20499;-50
2024/01/30 11:15:07;;;;;;;25.48;17.40;;;10.30;99.90;;;;;;5003703;28;20058;-51
2024/01/30 11:17:49;;;;;;;20.33;15.32;;;10.00;99.90;;;;;;4999695;28;20045;-50
2024/01/30 11:20:21;;;;;;;20.48;15.57;;;10.30;99.90;;;;;;5003782;28;20554;-47
2024/01/30 11:22:52;;;;;;;21.10;15.75;;;10.30;99.90;;;;;;5007127;28;20538;-47
2024/01/30 11:25:23;;;;;;;21.63;16.07;;;10.10;99.90;;;;;;5005990;28;20205;-51
2024/01/30 11:27:53;;;;;;;20.98;15.88;;;10.10;99.90;;;;;;5005405;28;20299;-52
2024/01/30 11:30:31;;;;;;;23.02;16.08;;;10.20;99.90;;;;;;5003103;28;20054;-51
2024/01/30 11:33:05;;;;;;;20.77;15.77;;;10.20;99.90;;;;;;5005005;28;20046;-54
2024/01/30 11:35:35;;;;;;;20.17;15.43;;;10.40;99.90;;;;;;5008567;28;20080;-49
2024/01/30 11:38:03;;;;;;;25.65;16.38;;;10.70;99.90;;;;;;5009518;28;20041;-49
2024/01/30 11:40:31;;;;;;;24.35;15.35;;;10.90;99.90;;;;;;5008273;28;20046;-49
2024/01/30 11:43:00;;;;;;;18.90;15.02;;;11.10;99.90;;;;;;5008234;28;20034;-54
2024/01/30 11:45:28;;;;;;;24.83;16.45;;;11.30;99.90;;;;;;5007243;28;20096;-53
2024/01/30 11:47:55;;;;;;;28.73;20.02;;;11.50;99.90;;;;;;5005905;28;20137;-50
2024/01/30 11:50:24;;;;;;;20.73;15.65;;;11.40;99.90;;;;;;5007829;28;20100;-57
2024/01/30 11:52:51;;;;;;;22.13;15.23;;;11.30;99.90;;;;;;5005979;28;20512;-50
2024/01/30 11:55:19;;;;;;;19.55;15.13;;;11.20;99.90;;;;;;5009362;28;20050;-49
2024/01/30 11:57:46;;;;;;;21.17;15.25;;;11.30;99.90;;;;;;5007109;28;20566;-47
2024/01/30 12:00:18;;;;;;;22.17;15.90;;;11.40;99.90;;;;;;5007176;28;20125;-51
2024/01/30 12:02:50;;;;;;;25.35;15.95;;;11.50;99.90;;;;;;5006229;28;20181;-50
2024/01/30 12:05:20;;;;;;;20.95;15.20;;;11.40;99.90;;;;;;5006003;28;20495;-53
2024/01/30 12:07:47;;;;;;;20.77;15.27;;;11.50;99.90;;;;;;5000289;28;20116;-48
2024/01/30 12:10:15;;;;;;;19.17;14.55;;;11.70;99.90;;;;;;5006480;28;20054;-48
2024/01/30 12:12:45;;;;;;;20.90;16.17;;;11.70;99.90;;;;;;5006284;28;20049;-48
2024/01/30 12:15:13;;;;;;;25.85;17.00;;;11.90;99.90;;;;;;5006964;28;20495;-51
2024/01/30 12:17:40;;;;;;;19.85;14.73;;;12.00;99.90;;;;;;5005479;28;20152;-49
2024/01/30 12:20:28;;;;;;;19.05;14.82;;;12.20;99.90;;;;;;5005621;28;20054;-54
2024/01/30 12:22:55;;;;;;;20.75;16.38;;;12.40;99.90;;;;;;5007079;28;20060;-53
2024/01/30 12:25:23;;;;;;;23.13;16.30;;;12.50;99.90;;;;;;5004987;28;20050;-47
2024/01/30 12:27:51;;;;;;;26.20;17.92;;;12.70;99.90;;;;;;5006062;28;20041;-51
2024/01/30 12:30:20;;;;;;;22.33;18.05;;;12.90;99.90;;;;;;5000044;28;20043;-50
2024/01/30 12:32:50;;;;;;;25.27;16.27;;;13.00;99.90;;;;;;4999830;28;20112;-46
2024/01/30 12:35:20;;;;;;;20.27;14.82;;;13.00;99.90;;;;;;5006118;28;20511;-54
2024/01/30 12:37:49;;;;;;;22.67;15.05;;;13.20;99.90;;;;;;5005320;28;20380;-48
2024/01/30 12:40:16;;;;;;;19.92;15.52;;;13.20;99.90;;;;;;5006823;28;20034;-49